createdAt,value
2023-04-20T00:00:11.613Z,60.50
2023-04-20T00:03:03.817Z,57.00
2023-04-20T00:05:33.326Z,50.00
2023-04-20T00:08:01.597Z,54.00
2023-04-20T00:10:29.424Z,58.50
2023-04-20T00:12:57.378Z,45.50
2023-04-20T00:15:25.393Z,59.00
2023-04-20T00:17:53.726Z,57.50
2023-04-20T00:20:21.624Z,52.00
2023-04-20T00:22:49.542Z,53.00
2023-04-20T00:25:17.533Z,58.67
2023-04-20T00:27:45.712Z,60.00
2023-04-20T00:30:14.081Z,89.33
2023-04-20T00:32:43.353Z,324.00
2023-04-20T00:35:12.147Z,280.50
2023-04-20T00:37:40.534Z,227.00
2023-04-20T00:40:09.701Z,214.00
2023-04-20T00:42:40.720Z,226.00
2023-04-20T00:45:09.589Z,119.00
2023-04-20T00:47:38.880Z,124.00
2023-04-20T00:52:35.495Z,176.00
2023-04-20T00:55:03.745Z,117.50
2023-04-20T00:57:31.704Z,69.00
2023-04-20T01:00:02.378Z,68.00
2023-04-20T01:02:30.425Z,63.00
2023-04-20T01:04:58.568Z,61.50
2023-04-20T01:07:26.574Z,61.50
2023-04-20T01:09:54.433Z,55.00
2023-04-20T01:12:22.334Z,45.00
2023-04-20T01:14:50.340Z,55.00
2023-04-20T01:17:20.690Z,59.50
2023-04-20T01:19:49.411Z,64.00
2023-04-20T01:22:18.414Z,55.00
2023-04-20T01:24:46.312Z,64.00
2023-04-20T01:27:16.482Z,54.00
2023-04-20T01:32:12.516Z,60.00
2023-04-20T01:34:40.849Z,58.00
2023-04-20T01:37:09.829Z,54.50
2023-04-20T01:39:40.853Z,55.00
2023-04-20T01:42:08.791Z,49.50
2023-04-20T01:44:37.248Z,50.00
2023-04-20T01:47:05.293Z,60.00
2023-04-20T01:49:33.878Z,52.67
2023-04-20T01:52:01.855Z,47.50
2023-04-20T01:56:58.030Z,59.00
2023-04-20T01:59:26.800Z,58.00
2023-04-20T02:01:54.878Z,65.00
2023-04-20T02:04:22.948Z,61.50
2023-04-20T02:06:50.831Z,68.00
2023-04-20T02:09:19.008Z,58.50
2023-04-20T02:11:47.156Z,68.00
2023-04-20T02:14:15.123Z,67.00
2023-04-20T02:16:43.165Z,64.00
2023-04-20T02:19:11.159Z,65.00
2023-04-20T02:21:39.304Z,60.00
2023-04-20T02:24:07.440Z,67.00
2023-04-20T02:26:35.412Z,67.00
2023-04-20T02:29:03.397Z,57.00
2023-04-20T02:31:31.571Z,67.00
2023-04-20T02:33:59.493Z,66.00
2023-04-20T02:36:28.391Z,64.50
2023-04-20T02:38:56.450Z,65.00
2023-04-20T02:41:24.608Z,65.00
2023-04-20T02:43:52.725Z,61.00
2023-04-20T02:46:21.032Z,64.00
2023-04-20T02:48:49.248Z,65.00
2023-04-20T02:51:17.286Z,72.00
2023-04-20T02:53:46.832Z,64.00
2023-04-20T02:58:55.154Z,62.50
2023-04-20T03:01:33.612Z,69.00
2023-04-20T03:04:21.197Z,57.00
2023-04-20T03:07:01.433Z,60.00
2023-04-20T03:09:31.520Z,58.50
2023-04-20T03:12:18.816Z,60.00
2023-04-20T03:15:06.564Z,60.00
2023-04-20T03:20:20.829Z,58.50
2023-04-20T03:22:49.088Z,60.00
2023-04-20T03:25:17.615Z,61.00
2023-04-20T03:28:02.652Z,52.00
2023-04-20T03:30:31.012Z,46.00
2023-04-20T03:33:12.557Z,56.00
2023-04-20T03:35:41.115Z,54.00
2023-04-20T03:38:09.139Z,57.50
2023-04-20T03:40:37.881Z,53.00
2023-04-20T03:43:07.494Z,54.50
2023-04-20T03:45:35.428Z,56.00
2023-04-20T03:48:03.727Z,53.50
2023-04-20T03:50:31.844Z,58.00
2023-04-20T03:52:59.902Z,56.00
2023-04-20T03:55:27.857Z,52.00
2023-04-20T03:58:00.548Z,55.50
2023-04-20T04:00:29.967Z,64.00
2023-04-20T04:03:00.781Z,55.00
2023-04-20T04:05:29.464Z,61.00
2023-04-20T04:07:57.698Z,59.50
2023-04-20T04:10:25.729Z,54.00
2023-04-20T04:12:54.606Z,53.50
2023-04-20T04:15:23.389Z,52.00
2023-04-20T04:18:00.778Z,53.00
2023-04-20T04:20:29.060Z,53.00
2023-04-20T04:22:57.640Z,49.00
2023-04-20T04:25:39.704Z,57.00
2023-04-20T04:28:08.148Z,51.00
2023-04-20T04:30:40.876Z,53.00
2023-04-20T04:33:12.916Z,56.00
2023-04-20T04:35:43.893Z,54.50
2023-04-20T04:38:14.079Z,52.00
2023-04-20T04:40:45.926Z,60.00
2023-04-20T04:43:14.346Z,61.50
2023-04-20T04:45:49.977Z,57.00
2023-04-20T04:48:19.997Z,58.50
2023-04-20T04:50:47.934Z,59.33
2023-04-20T04:53:16.136Z,62.50
2023-04-20T04:58:11.919Z,61.50
2023-04-20T05:00:40.512Z,58.50
2023-04-20T05:03:08.861Z,65.00
2023-04-20T05:05:36.922Z,113.00
2023-04-20T05:08:04.865Z,87.00
2023-04-20T05:10:32.860Z,71.33
2023-04-20T05:13:00.835Z,60.00
2023-04-20T05:15:28.860Z,57.00
2023-04-20T05:17:56.875Z,57.25
2023-04-20T05:20:24.814Z,60.50
2023-04-20T05:22:52.685Z,68.00
2023-04-20T05:25:20.668Z,68.00
2023-04-20T05:27:48.598Z,67.00
2023-04-20T05:48:52.971Z,62.00
2023-04-20T05:51:22.464Z,72.00
2023-04-20T05:53:50.388Z,71.00
2023-04-20T05:56:18.629Z,70.75
2023-04-20T05:58:46.748Z,70.00
2023-04-20T06:01:14.751Z,75.33
2023-04-20T06:03:43.163Z,74.75
2023-04-20T06:06:11.249Z,72.00
2023-04-20T06:08:39.107Z,68.75
2023-04-20T06:11:07.028Z,63.50
2023-04-20T06:13:34.994Z,65.50
2023-04-20T06:16:02.978Z,65.75
2023-04-20T06:18:30.989Z,72.25
2023-04-20T06:21:00.059Z,64.25
2023-04-20T06:23:28.030Z,68.00
2023-04-20T06:25:55.909Z,73.50
2023-04-20T06:28:23.892Z,71.00
2023-04-20T06:30:51.975Z,72.50
2023-04-20T06:33:20.260Z,67.25
2023-04-20T06:35:48.343Z,70.75
2023-04-20T06:38:16.402Z,70.75
2023-04-20T06:40:44.606Z,68.33
2023-04-20T06:43:12.610Z,72.75
2023-04-20T06:45:40.684Z,74.75
2023-04-20T06:48:20.158Z,71.00
2023-04-20T06:50:56.001Z,67.25
2023-04-20T06:53:24.033Z,70.00
2023-04-20T06:55:54.606Z,72.50
2023-04-20T06:58:22.496Z,72.25
2023-04-20T07:00:50.545Z,68.00
2023-04-20T07:03:19.469Z,69.50
2023-04-20T07:05:47.720Z,65.25
2023-04-20T07:08:18.306Z,65.00
2023-04-20T07:10:46.293Z,65.75
2023-04-20T07:13:14.207Z,65.50
2023-04-20T07:15:45.276Z,66.50
2023-04-20T07:18:13.296Z,65.33
2023-04-20T07:20:41.243Z,62.25
2023-04-20T07:23:09.237Z,60.50
2023-04-20T07:25:37.270Z,56.25
2023-04-20T07:28:05.318Z,59.50
2023-04-20T07:30:33.313Z,53.75
2023-04-20T07:33:01.356Z,51.25
2023-04-20T07:35:29.256Z,60.25
2023-04-20T07:37:57.275Z,60.25
2023-04-20T07:40:25.448Z,58.25
2023-04-20T07:42:53.599Z,57.50
2023-04-20T07:45:23.017Z,59.75
2023-04-20T07:47:52.471Z,56.75
2023-04-20T07:50:20.674Z,55.50
2023-04-20T07:52:48.567Z,60.25
2023-04-20T07:55:17.439Z,54.00
2023-04-20T07:57:45.341Z,58.75
2023-04-20T08:00:14.921Z,53.25
2023-04-20T08:02:42.993Z,57.50
2023-04-20T08:05:11.648Z,54.50
2023-04-20T08:07:40.034Z,61.50
2023-04-20T08:10:08.613Z,54.33
2023-04-20T08:12:36.546Z,53.00
2023-04-20T08:15:06.619Z,44.50
2023-04-20T08:17:34.592Z,49.75
2023-04-20T08:20:02.753Z,49.50
2023-04-20T08:22:30.811Z,44.75
2023-04-20T08:24:58.654Z,45.75
2023-04-20T08:27:29.825Z,41.00
2023-04-20T08:29:58.117Z,43.00
2023-04-20T08:32:27.091Z,40.50
2023-04-20T08:34:55.630Z,46.00
2023-04-20T08:37:23.706Z,51.25
2023-04-20T08:39:51.781Z,51.00
2023-04-20T08:42:19.779Z,39.00
2023-04-20T08:44:47.850Z,46.75
2023-04-20T08:47:15.804Z,46.33
2023-04-20T08:49:44.448Z,43.25
2023-04-20T08:52:13.796Z,47.33
2023-04-20T08:54:55.085Z,45.00
2023-04-20T08:57:25.232Z,40.25
2023-04-20T08:59:53.508Z,47.75
2023-04-20T09:02:22.989Z,37.50
2023-04-20T09:05:01.461Z,43.00
2023-04-20T09:07:29.426Z,32.75
2023-04-20T09:09:58.181Z,34.75
2023-04-20T09:12:26.174Z,33.25
2023-04-20T09:14:54.452Z,31.33
2023-04-20T09:17:33.319Z,32.25
2023-04-20T09:20:01.588Z,37.50
2023-04-20T09:22:31.554Z,33.25
2023-04-20T09:24:59.769Z,32.75
2023-04-20T09:27:27.851Z,35.00
2023-04-20T09:30:04.099Z,32.75
2023-04-20T09:32:33.274Z,29.67
2023-04-20T09:35:01.379Z,28.00
2023-04-20T09:37:29.336Z,30.25
2023-04-20T09:39:59.955Z,32.50
2023-04-20T09:42:28.508Z,32.75
2023-04-20T09:44:57.184Z,34.50
2023-04-20T09:47:26.871Z,28.75
2023-04-20T09:49:55.264Z,32.67
2023-04-20T09:52:23.582Z,46.75
2023-04-20T09:54:51.775Z,32.00
2023-04-20T09:57:19.887Z,37.50
2023-04-20T09:59:48.044Z,33.00
2023-04-20T10:02:16.025Z,41.25
2023-04-20T10:04:59.334Z,29.00
2023-04-20T10:07:30.123Z,19.00
2023-04-20T10:10:09.101Z,26.00
2023-04-20T10:12:50.022Z,27.75
2023-04-20T10:15:18.272Z,30.00
2023-04-20T10:17:46.464Z,30.75
2023-04-20T10:20:24.582Z,28.75
2023-04-20T10:22:52.946Z,25.75
2023-04-20T10:25:24.887Z,26.00
2023-04-20T10:28:01.843Z,30.00
2023-04-20T10:30:30.414Z,26.25
2023-04-20T10:33:14.313Z,27.00
2023-04-20T10:35:54.882Z,26.75
2023-04-20T10:38:34.477Z,24.25
2023-04-20T10:41:11.632Z,27.00
2023-04-20T10:43:43.263Z,27.50
2023-04-20T10:46:15.396Z,22.25
2023-04-20T10:49:01.409Z,28.50
2023-04-20T10:51:29.524Z,18.00
2023-04-20T10:54:01.625Z,20.00
2023-04-20T10:56:45.820Z,25.00
2023-04-20T10:59:18.589Z,36.00
2023-04-20T11:01:47.189Z,25.50
2023-04-20T11:04:18.357Z,22.75
2023-04-20T11:06:50.899Z,19.75
2023-04-20T11:09:24.867Z,17.75
2023-04-20T11:12:04.254Z,18.00
2023-04-20T11:14:36.051Z,18.75
2023-04-20T11:17:04.777Z,19.75
2023-04-20T11:19:36.103Z,17.75
2023-04-20T11:22:05.168Z,20.25
2023-04-20T11:24:37.566Z,31.00
2023-04-20T11:27:05.570Z,21.50
2023-04-20T11:29:35.346Z,21.50
2023-04-20T11:32:07.819Z,19.00
2023-04-20T11:34:37.699Z,23.25
2023-04-20T11:37:10.567Z,21.75
2023-04-20T11:39:39.038Z,21.25
2023-04-20T11:42:06.979Z,22.75
2023-04-20T11:44:37.036Z,22.00
2023-04-20T11:47:06.134Z,19.75
2023-04-20T11:49:34.237Z,21.25
2023-04-20T11:52:02.145Z,22.75
2023-04-20T11:54:32.466Z,21.00
2023-04-20T11:57:01.026Z,19.25
2023-04-20T11:59:28.967Z,19.00
2023-04-20T12:01:56.978Z,18.00
2023-04-20T12:04:25.379Z,18.00
2023-04-20T12:06:53.674Z,20.75
2023-04-20T12:09:21.677Z,21.50
2023-04-20T12:11:49.761Z,14.75
2023-04-20T12:14:18.012Z,17.00
2023-04-20T12:16:46.111Z,21.50
2023-04-20T12:19:14.190Z,19.75
2023-04-20T12:21:42.229Z,21.00
2023-04-20T12:24:10.255Z,21.75
2023-04-20T12:26:38.905Z,20.75
2023-04-20T12:29:07.657Z,18.00
2023-04-20T12:31:36.352Z,18.75
2023-04-20T12:34:04.443Z,17.00
2023-04-20T12:36:32.680Z,19.75
2023-04-20T12:39:01.904Z,21.75
2023-04-20T12:41:31.176Z,19.00
2023-04-20T12:43:59.202Z,18.00
2023-04-20T12:46:27.241Z,18.00
2023-04-20T12:48:56.267Z,16.00
2023-04-20T12:51:24.307Z,17.50
2023-04-20T12:53:52.281Z,19.75
2023-04-20T12:56:20.913Z,18.00
2023-04-20T12:58:48.799Z,16.75
2023-04-20T13:01:16.882Z,18.33
2023-04-20T13:03:45.216Z,19.50
2023-04-20T13:06:14.625Z,16.25
2023-04-20T13:08:42.749Z,18.25
2023-04-20T13:11:15.485Z,19.50
2023-04-20T13:13:43.770Z,16.75
2023-04-20T13:16:11.933Z,23.00
2023-04-20T13:18:39.978Z,17.75
2023-04-20T13:21:08.420Z,20.50
2023-04-20T13:23:38.216Z,19.25
2023-04-20T13:26:06.612Z,18.50
2023-04-20T13:28:34.911Z,19.50
2023-04-20T13:31:02.859Z,17.50
2023-04-20T13:33:30.828Z,18.50
2023-04-20T13:35:58.867Z,19.50
2023-04-20T13:38:26.751Z,17.50
2023-04-20T13:40:54.672Z,21.50
2023-04-20T13:43:23.103Z,21.25
2023-04-20T13:45:51.191Z,19.50
2023-04-20T13:48:19.164Z,19.50
2023-04-20T13:50:47.621Z,21.75
2023-04-20T13:53:15.693Z,17.00
2023-04-20T13:55:43.844Z,23.50
2023-04-20T13:58:11.784Z,20.67
2023-04-20T14:00:39.728Z,17.75
2023-04-20T14:03:10.617Z,19.25
2023-04-20T14:05:39.194Z,19.50
2023-04-20T14:08:07.479Z,19.00
2023-04-20T14:10:35.673Z,22.25
2023-04-20T14:13:03.569Z,22.00
2023-04-20T14:15:31.581Z,17.75
2023-04-20T14:18:00.797Z,19.50
2023-04-20T14:20:28.883Z,17.00
2023-04-20T14:22:56.719Z,20.50
2023-04-20T14:25:24.962Z,23.75
2023-04-20T14:27:53.177Z,29.00
2023-04-20T14:30:21.191Z,22.00
2023-04-20T14:32:59.309Z,25.75
2023-04-20T14:35:28.129Z,22.25
2023-04-20T14:37:56.238Z,27.00
2023-04-20T14:40:24.319Z,19.75
2023-04-20T14:42:52.348Z,16.50
2023-04-20T14:45:20.614Z,17.50
2023-04-20T14:47:54.268Z,15.75
2023-04-20T14:50:23.745Z,15.00
2023-04-20T14:52:53.971Z,15.00
2023-04-20T14:55:25.132Z,17.00
2023-04-20T14:57:57.404Z,17.75
2023-04-20T15:00:27.780Z,19.00
2023-04-20T15:02:59.901Z,17.00
2023-04-20T15:05:29.564Z,18.50
2023-04-20T15:07:57.731Z,14.75
2023-04-20T15:10:25.841Z,16.00
2023-04-20T15:12:53.890Z,14.00
2023-04-20T15:15:21.941Z,14.25
2023-04-20T15:17:50.557Z,14.00
2023-04-20T15:20:18.663Z,15.75
2023-04-20T15:22:46.722Z,17.75
2023-04-20T15:25:14.785Z,16.75
2023-04-20T15:27:42.802Z,15.25
2023-04-20T15:30:11.672Z,21.25
2023-04-20T15:32:40.393Z,19.00
2023-04-20T15:35:09.843Z,22.50
2023-04-20T15:37:38.366Z,22.50
2023-04-20T15:40:08.328Z,18.75
2023-04-20T15:42:36.196Z,20.00
2023-04-20T15:45:05.849Z,26.50
2023-04-20T15:47:33.856Z,28.25
2023-04-20T15:50:08.308Z,30.33
2023-04-20T15:52:36.825Z,24.00
2023-04-20T15:55:05.576Z,32.50
2023-04-20T15:57:33.543Z,52.67
2023-04-20T16:00:01.463Z,51.00
2023-04-20T16:02:29.568Z,42.00
2023-04-20T16:04:59.198Z,48.50
2023-04-20T16:07:27.178Z,45.75
2023-04-20T16:09:55.155Z,42.75
2023-04-20T16:12:23.174Z,27.25
2023-04-20T16:14:53.277Z,28.75
2023-04-20T16:17:22.004Z,32.00
2023-04-20T16:19:50.468Z,35.33
2023-04-20T16:22:18.411Z,35.50
2023-04-20T16:24:46.446Z,35.00
2023-04-20T16:27:14.431Z,36.25
2023-04-20T16:29:42.590Z,31.00
2023-04-20T16:32:11.994Z,34.50
2023-04-20T16:34:39.893Z,36.75
2023-04-20T16:37:09.175Z,36.67
2023-04-20T16:39:37.466Z,45.00
2023-04-20T16:42:05.629Z,45.00
2023-04-20T16:44:33.745Z,38.50
2023-04-20T16:47:02.288Z,36.00
2023-04-20T16:49:30.943Z,32.50
2023-04-20T16:51:58.961Z,53.75
2023-04-20T16:54:27.051Z,81.50
2023-04-20T16:56:55.536Z,71.00
2023-04-20T16:59:23.913Z,60.33
2023-04-20T17:01:51.941Z,56.00
2023-04-20T17:04:21.788Z,25.00
2023-04-20T17:06:50.050Z,19.33
2023-04-20T17:09:18.031Z,17.50
2023-04-20T17:11:46.013Z,23.00
2023-04-20T17:14:14.046Z,53.75
2023-04-20T17:16:42.006Z,31.00
2023-04-20T17:19:10.072Z,22.75
2023-04-20T17:21:40.231Z,23.00
2023-04-20T17:24:08.244Z,25.75
2023-04-20T17:26:36.516Z,30.75
2023-04-20T17:29:05.014Z,33.50
2023-04-20T17:31:34.647Z,48.50
2023-04-20T17:34:02.527Z,46.25
2023-04-20T17:36:30.632Z,24.00
2023-04-20T17:38:58.638Z,23.50
2023-04-20T17:41:26.788Z,23.75
2023-04-20T17:43:55.991Z,18.75
2023-04-20T17:46:24.649Z,22.75
2023-04-20T17:48:52.712Z,21.25
2023-04-20T17:51:21.458Z,23.00
2023-04-20T17:53:49.345Z,25.00
2023-04-20T17:56:17.987Z,24.00
2023-04-20T17:58:46.402Z,19.75
2023-04-20T18:01:15.715Z,23.67
2023-04-20T18:03:43.995Z,21.75
2023-04-20T18:06:14.772Z,25.25
2023-04-20T18:08:42.908Z,36.75
2023-04-20T18:11:11.481Z,41.75
2023-04-20T18:13:39.540Z,49.50
2023-04-20T18:16:08.510Z,37.00
2023-04-20T18:18:36.618Z,35.75
2023-04-20T18:21:04.678Z,34.00
2023-04-20T18:23:33.642Z,31.00
2023-04-20T18:26:01.939Z,37.67
2023-04-20T18:28:30.375Z,32.50
2023-04-20T18:30:59.003Z,47.25
2023-04-20T18:33:29.429Z,37.75
2023-04-20T18:35:57.530Z,38.00
2023-04-20T18:38:25.548Z,50.00
2023-04-20T18:40:53.561Z,39.25
2023-04-20T18:43:21.531Z,38.50
2023-04-20T18:45:49.521Z,26.75
2023-04-20T18:48:18.871Z,26.25
2023-04-20T18:50:48.232Z,29.75
2023-04-20T18:53:16.782Z,65.00
2023-04-20T18:55:44.948Z,38.33
2023-04-20T18:58:12.933Z,36.33
2023-04-20T19:00:41.215Z,38.33
2023-04-20T19:03:10.693Z,36.50
2023-04-20T19:05:41.758Z,48.00
2023-04-20T19:08:10.090Z,32.25
2023-04-20T19:10:38.314Z,29.75
2023-04-20T19:13:06.503Z,72.25
2023-04-20T19:15:34.818Z,23.75
2023-04-20T19:18:02.768Z,24.75
2023-04-20T19:20:30.895Z,28.25
2023-04-20T19:22:58.852Z,29.50
2023-04-20T19:25:26.821Z,31.75
2023-04-20T19:27:55.182Z,40.50
2023-04-20T19:30:24.157Z,33.75
2023-04-20T19:32:52.095Z,39.25
2023-04-20T19:35:20.203Z,32.50
2023-04-20T19:37:48.272Z,34.33
2023-04-20T19:40:16.466Z,32.00
2023-04-20T19:42:44.783Z,26.00
2023-04-20T19:45:12.798Z,30.00
2023-04-20T19:47:40.975Z,31.00
2023-04-20T19:50:09.752Z,32.00
2023-04-20T19:52:37.770Z,29.00
2023-04-20T19:55:06.928Z,28.50
2023-04-20T19:57:35.013Z,34.75
2023-04-20T20:00:04.540Z,29.50
2023-04-20T20:02:40.699Z,33.00
2023-04-20T20:05:09.147Z,32.75
2023-04-20T20:07:39.991Z,33.00
2023-04-20T20:10:08.641Z,29.50
2023-04-20T20:12:36.858Z,34.75
2023-04-20T20:15:05.011Z,37.00
2023-04-20T20:17:33.053Z,32.75
2023-04-20T20:20:01.949Z,41.00
2023-04-20T20:22:32.206Z,39.75
2023-04-20T20:25:01.296Z,33.25
2023-04-20T20:27:29.239Z,37.75
2023-04-20T20:29:57.248Z,41.50
2023-04-20T20:32:25.168Z,32.75
2023-04-20T20:34:53.428Z,32.75
2023-04-20T20:37:21.647Z,38.50
2023-04-20T20:39:49.521Z,30.25
2023-04-20T20:42:17.537Z,37.25
2023-04-20T20:44:45.512Z,41.00
2023-04-20T20:47:13.437Z,39.75
2023-04-20T20:49:41.260Z,32.50
2023-04-20T20:52:09.222Z,37.25
2023-04-20T20:54:37.180Z,38.00
2023-04-20T20:57:05.046Z,34.50
2023-04-20T20:59:33.065Z,44.25
2023-04-20T21:02:01.081Z,46.33
2023-04-20T21:04:30.222Z,49.00
2023-04-20T21:06:58.253Z,43.50
2023-04-20T21:09:26.198Z,45.50
2023-04-20T21:11:54.149Z,38.75
2023-04-20T21:14:22.191Z,32.50
2023-04-20T21:16:50.125Z,44.75
2023-04-20T21:19:18.344Z,46.67
2023-04-20T21:21:46.427Z,41.25
2023-04-20T21:24:14.434Z,54.50
2023-04-20T21:26:42.198Z,77.25
2023-04-20T21:29:10.238Z,105.75
2023-04-20T21:31:38.214Z,131.75
2023-04-20T21:34:06.256Z,99.25
2023-04-20T21:36:34.228Z,90.25
2023-04-20T21:39:02.249Z,62.75
2023-04-20T21:41:32.241Z,61.25
2023-04-20T21:44:01.382Z,50.00
2023-04-20T21:46:29.585Z,39.50
2023-04-20T21:48:57.774Z,39.25
2023-04-20T21:51:25.970Z,45.50
2023-04-20T21:53:53.969Z,38.75
2023-04-20T21:56:21.804Z,45.00
2023-04-20T21:58:49.823Z,40.00
2023-04-20T22:01:17.927Z,36.75
2023-04-20T22:03:47.714Z,47.25
2023-04-20T22:06:15.830Z,34.50
2023-04-20T22:08:43.840Z,33.75
2023-04-20T22:11:11.731Z,33.50
2023-04-20T22:13:39.547Z,40.00
2023-04-20T22:16:07.715Z,45.00
2023-04-20T22:18:35.716Z,46.25
2023-04-20T22:21:03.776Z,47.00
2023-04-20T22:23:31.630Z,47.00
2023-04-20T22:25:59.667Z,51.25
2023-04-20T22:28:27.522Z,48.50
2023-04-20T22:30:55.871Z,40.50
2023-04-20T22:33:23.940Z,37.50
2023-04-20T22:35:52.724Z,61.25
2023-04-20T22:38:20.806Z,61.75
2023-04-20T22:40:48.759Z,89.67
2023-04-20T22:43:16.698Z,60.25
2023-04-20T22:45:44.579Z,55.25
2023-04-20T22:48:12.628Z,58.75
2023-04-20T22:50:40.608Z,66.50
2023-04-20T22:53:08.536Z,35.75
2023-04-20T22:55:36.482Z,44.00
2023-04-20T22:58:04.347Z,45.25
2023-04-20T23:00:32.366Z,40.50
2023-04-20T23:03:00.456Z,38.50
2023-04-20T23:05:29.047Z,40.50
2023-04-20T23:07:57.079Z,34.00
2023-04-20T23:10:28.842Z,43.00
2023-04-20T23:12:56.960Z,40.50
2023-04-20T23:15:24.968Z,39.00
2023-04-20T23:17:53.040Z,37.25
2023-04-20T23:20:21.539Z,43.33
2023-04-20T23:22:49.535Z,47.00
2023-04-20T23:25:17.625Z,38.50
2023-04-20T23:27:45.698Z,58.00
2023-04-20T23:30:13.920Z,50.00
2023-04-20T23:32:43.872Z,42.50
2023-04-20T23:35:12.617Z,44.50
2023-04-20T23:37:40.592Z,45.25
2023-04-20T23:40:10.158Z,55.25
2023-04-20T23:42:38.119Z,57.25
2023-04-20T23:45:06.882Z,51.00
2023-04-20T23:47:35.050Z,54.00
2023-04-20T23:50:03.272Z,50.75
2023-04-20T23:52:31.346Z,51.25
2023-04-20T23:54:59.258Z,43.75
2023-04-20T23:57:27.258Z,45.75
2023-04-20T23:59:55.297Z,51.75
